Date,TemperatureHighF,TemperatureAvgF,TemperatureLowF,DewpointHighF,DewpointAvgF,DewpointLowF,HumidityHigh,HumidityAvg,HumidityLow,PressureMaxIn,PressureMinIn,WindSpeedMaxMPH,WindSpeedAvgMPH,GustSpeedMaxMPH,PrecipitationSumIn
2012-1-1,60.5,52.4,45.9,57.6,50.9,44.9,98,95,89,30.25,30.13,5,1,8,0.01
2012-1-2,61.6,54.3,47.5,60.5,52.8,46.4,97,95,91,30.28,30.15,9,1,10,0.01
2012-1-3,68.7,57.2,50.6,60.8,51.9,43.7,92,83,74,30.26,30.17,4,0,6,0.00
2012-1-4,68.1,58.6,50.9,57.5,48.6,40.7,79,70,52,30.28,30.18,6,1,8,0.00
2012-1-5,69.9,60.9,53.8,54.6,43.9,33.3,74,54,35,30.20,30.01,3,0,5,0.00
2012-1-6,67.5,57.5,51.0,56.4,48.0,35.1,94,72,44,30.07,29.98,4,0,6,0.00
2012-1-7,61.6,54.4,49.5,55.0,50.7,46.9,93,87,77,30.10,30.00,4,0,5,0.00
2012-1-8,64.7,55.9,46.9,56.9,46.9,26.9,96,76,24,30.21,30.09,6,1,10,0.01
2012-1-9,68.1,57.3,50.5,56.7,43.5,29.5,83,61,34,30.23,30.16,5,0,9,0.00
2012-1-10,64.1,56.8,50.5,55.0,44.9,33.7,84,65,39,30.22,30.09,6,1,7,0.00
2012-1-11,60.1,55.8,50.0,55.5,49.4,37.2,90,79,59,30.12,30.00,6,1,7,0.00
2012-1-12,66.9,57.3,50.8,59.8,49.6,33.3,88,76,50,30.08,30.00,4,0,6,0.00
2012-1-13,67.2,57.5,47.0,54.3,31.2,18.7,73,39,19,30.19,30.08,5,1,7,0.00
2012-1-14,65.0,56.4,50.1,54.4,36.4,18.0,80,51,24,30.22,30.12,4,0,9,0.00
2012-1-15,63.1,55.9,48.6,56.3,43.3,25.7,92,65,33,30.19,30.10,7,1,9,0.04
2012-1-16,56.3,52.6,47.9,52.0,46.8,40.9,94,81,67,30.28,30.14,5,1,10,0.01
2012-1-17,62.7,51.5,45.2,47.1,43.3,39.4,82,74,56,30.37,30.27,7,1,9,0.00
2012-1-18,62.9,52.1,43.8,52.8,46.2,37.8,89,80,68,30.37,30.22,8,2,9,0.00
2012-1-19,64.9,53.1,44.0,56.3,48.2,40.4,91,84,73,30.22,30.08,3,0,6,0.00
2012-1-20,65.0,55.4,49.6,55.4,50.3,46.5,92,83,69,30.18,30.09,4,0,8,0.00
2012-1-21,60.1,55.6,50.7,58.4,52.4,46.8,97,89,80,30.15,30.05,9,2,15,0.26
2012-1-22,61.3,54.0,49.7,54.4,49.8,46.0,92,86,77,30.24,30.15,5,1,8,0.00
2012-1-23,58.6,53.6,50.3,57.5,51.3,47.8,97,92,83,30.18,29.94,9,2,15,0.42
2012-1-24,63.4,54.0,46.9,57.9,50.4,45.5,95,88,78,30.25,30.07,6,1,8,0.01
2012-1-25,68.1,58.5,49.1,59.6,51.0,42.5,83,76,64,30.25,30.12,6,1,8,0.00
2012-1-26,66.3,56.8,52.4,55.7,47.8,44.2,79,72,58,30.16,30.10,3,0,4,0.00
2012-1-30,64.7,58.9,54.4,56.5,53.0,33.6,92,82,33,30.09,30.01,5,2,7,0.00
2012-1-31,57.0,52.0,47.6,52.7,48.5,44.5,92,88,84,30.19,30.05,7,1,9,0.00
2012-2-1,67.4,56.3,49.3,58.3,51.9,46.2,93,85,71,30.24,30.11,7,0,9,0.00
2012-2-2,66.4,54.9,47.6,57.0,50.3,44.8,92,85,71,30.14,29.95,5,0,6,0.00
2012-2-3,64.3,55.8,46.1,59.7,44.4,24.2,91,69,27,30.07,29.99,5,1,6,0.00
2012-2-4,65.6,59.1,49.3,53.4,37.2,23.0,75,46,27,30.09,30.01,4,1,6,0.00
2012-2-5,65.4,57.6,49.1,55.4,41.5,30.5,77,56,36,30.09,29.99,5,1,8,0.00
2012-2-6,63.4,57.4,49.8,54.2,46.4,35.6,80,67,48,30.06,29.94,5,0,5,0.00
2012-2-7,60.9,57.5,55.4,55.4,49.5,38.3,88,75,49,30.02,29.92,11,2,14,0.02
2012-2-8,64.8,58.5,52.1,56.3,50.3,43.9,83,74,56,30.17,30.02,7,1,9,0.00
2012-2-9,70.0,61.9,54.7,60.3,48.6,36.9,76,62,40,30.22,30.12,4,0,7,0.00
2012-2-10,64.9,57.9,51.4,58.2,51.0,40.6,89,78,60,30.22,30.11,4,1,5,0.00
2012-2-11,66.3,58.3,53.6,57.8,53.2,48.9,94,83,73,30.11,29.99,6,1,8,0.03
2012-2-12,63.4,57.1,50.9,55.2,51.6,47.5,89,82,73,30.08,30.00,4,1,7,0.00
2012-2-13,60.0,56.5,54.1,54.0,51.0,47.0,86,82,72,30.08,29.97,18,4,23,0.01
2012-2-14,60.2,53.2,45.6,51.7,47.1,43.3,92,80,68,30.14,29.95,17,1,17,0.09
2012-2-15,59.5,50.8,46.6,51.9,46.2,42.9,94,84,75,30.14,29.94,10,2,13,0.24
2012-2-16,69.4,55.6,42.9,55.3,40.8,33.0,91,62,29,30.14,30.03,6,0,11,0.00
2012-2-17,65.4,57.0,50.4,55.6,45.5,28.3,85,67,31,30.21,30.11,4,0,9,0.00
2012-2-18,61.3,54.5,47.6,53.5,48.4,43.9,89,80,72,30.20,30.08,7,2,9,0.00
2012-2-19,63.0,55.2,48.5,54.6,49.4,43.9,87,81,73,30.15,30.04,4,1,5,0.01
2012-2-20,63.1,54.2,47.8,54.3,48.8,43.8,90,82,72,30.18,30.10,3,0,7,0.00
2012-2-21,63.1,55.4,46.3,56.6,49.2,41.0,91,80,61,30.19,30.11,7,1,8,0.00
2012-2-22,67.3,59.3,51.3,58.5,46.3,39.1,82,63,44,30.17,29.94,8,1,9,0.00
2012-2-23,66.4,57.8,50.0,58.9,51.8,42.1,91,80,61,29.99,29.84,5,1,7,0.00
2012-2-24,61.7,56.4,53.0,57.2,53.3,51.0,94,89,82,30.19,29.99,4,1,6,0.00
2012-2-25,64.3,57.6,55.1,56.2,52.5,50.6,89,83,72,30.20,30.00,6,1,9,0.00
2012-2-26,61.5,56.4,53.7,52.9,50.4,49.1,86,80,72,30.01,29.91,8,2,12,0.00
2012-2-27,57.0,52.9,47.5,51.2,47.0,43.1,92,81,70,30.03,29.90,16,5,24,0.53
2012-2-28,57.2,52.3,46.6,45.2,42.8,40.7,80,70,60,30.34,30.03,17,3,24,0.00
2012-2-29,58.6,52.0,44.2,52.6,46.0,38.9,89,80,70,30.35,30.24,12,3,12,0.00
2012-3-1,59.9,54.7,50.6,52.7,48.8,45.2,90,81,70,30.24,30.12,6,2,9,0.00
2012-3-2,67.1,55.6,46.4,56.2,45.5,20.3,85,71,21,30.30,30.13,6,1,8,0.00
2012-3-3,71.8,56.2,48.4,57.6,34.7,18.5,70,46,26,30.29,30.19,4,0,8,0.00
2012-3-4,72.7,60.9,51.2,56.2,42.6,33.2,74,52,30,30.18,29.98,4,1,6,0.00
2012-3-5,67.9,59.9,54.5,56.6,48.5,37.2,94,67,48,30.05,29.96,3,0,4,0.00
2012-3-6,59.3,55.3,52.2,54.6,50.8,46.5,94,85,75,30.00,29.86,8,3,10,0.00
2012-3-7,60.8,52.3,43.2,47.0,37.7,18.1,84,60,21,30.20,29.89,11,2,13,0.00
2012-3-8,63.9,55.3,42.9,52.2,43.1,31.0,76,64,37,30.30,30.20,7,2,11,0.00
2012-3-9,68.6,61.5,49.8,54.9,39.2,24.0,67,45,25,30.28,30.05,6,1,9,0.00
2012-3-10,69.1,58.2,50.5,56.5,47.6,34.0,89,69,44,30.07,29.99,7,2,9,0.00
2012-3-11,62.7,56.1,53.7,53.5,50.0,48.8,85,80,69,30.12,30.04,6,3,7,0.00
2012-3-12,64.0,57.1,53.7,53.6,50.0,47.0,84,77,68,30.11,30.03,6,1,8,0.00
2012-3-13,64.1,56.8,52.7,54.4,50.3,47.2,87,79,67,30.14,30.07,10,2,12,0.00
2012-3-14,63.3,55.6,48.5,55.4,51.2,45.2,92,85,74,30.21,30.13,10,3,13,0.00
2012-3-15,63.6,56.8,53.9,56.2,52.6,51.3,92,86,75,30.21,30.12,5,1,7,0.00
2012-3-16,64.0,57.3,54.7,56.8,53.4,51.5,92,87,75,30.14,29.99,4,1,5,0.00
2012-3-17,56.9,53.7,50.6,55.9,51.0,44.3,97,91,79,29.89,29.80,16,5,21,0.16
2012-3-18,55.9,51.6,48.1,46.8,44.3,41.4,89,76,66,30.03,29.76,21,8,24,0.11
2012-3-19,62.9,54.2,49.0,49.6,45.5,42.8,79,73,60,30.10,29.96,14,2,16,0.00
2012-3-20,58.2,53.2,45.9,51.3,46.5,40.7,84,78,72,30.18,30.10,9,2,10,0.00
2012-3-21,62.6,55.1,48.2,55.9,48.6,43.2,84,79,71,30.17,29.98,8,2,9,0.00
2012-3-22,62.8,54.9,48.9,56.5,50.2,43.3,92,84,75,30.04,29.93,5,1,8,0.00
2012-3-23,63.6,55.8,52.7,56.5,52.0,49.3,94,87,74,30.12,30.02,5,1,7,0.00
2012-3-24,60.1,56.0,53.2,54.3,51.8,50.0,90,86,78,30.05,29.96,4,1,6,0.00
2012-3-25,59.4,53.1,50.2,53.6,49.8,46.9,94,89,78,30.02,29.89,17,4,21,0.31
2012-3-26,64.9,55.4,50.4,56.4,51.0,47.4,94,86,69,30.19,30.02,12,2,14,0.01
2012-3-27,62.7,53.2,47.4,56.8,48.9,44.3,90,85,75,30.16,30.08,12,2,13,0.00
2012-3-28,63.4,54.2,47.1,55.5,49.5,43.1,93,84,74,30.17,30.06,8,2,11,0.00
2012-3-29,61.0,56.8,55.2,57.6,54.4,52.9,95,92,86,30.13,30.02,5,1,10,0.00
2012-3-30,63.9,57.0,54.8,57.2,53.4,51.8,91,88,76,30.07,30.00,4,1,7,0.00
2012-3-31,60.4,56.6,54.1,55.5,53.2,51.6,93,88,82,30.11,30.03,16,2,18,0.04
2012-4-1,62.2,56.7,50.3,53.9,50.2,46.0,86,79,70,30.08,30.02,17,5,20,0.01
2012-4-2,70.1,58.2,47.8,59.1,49.4,40.5,86,73,55,30.08,29.94,8,1,8,0.00
2012-4-3,71.4,59.3,49.7,59.2,49.9,40.4,84,71,55,30.04,29.96,3,0,6,0.00
2012-4-4,65.8,58.0,51.2,59.1,52.9,48.1,90,83,74,30.03,29.92,6,1,7,0.00
2012-4-5,67.1,57.2,51.0,58.2,51.5,47.3,92,82,70,30.06,29.92,9,3,11,0.00
2012-4-6,61.2,54.6,47.2,53.1,47.1,42.0,83,76,62,30.14,30.02,12,2,13,0.00
2012-4-7,67.7,58.5,49.5,55.4,46.7,33.3,79,65,48,30.08,30.01,6,1,9,0.00
2012-4-8,64.1,56.8,50.4,56.0,48.2,37.0,85,73,57,30.07,30.02,6,1,8,0.00
2012-4-9,65.8,57.0,48.1,58.5,51.3,41.5,89,81,73,30.06,29.98,5,1,8,0.00
2012-4-10,65.5,56.0,49.3,55.9,50.6,45.9,90,82,69,30.03,29.93,6,2,8,0.01
2012-4-11,65.8,58.2,54.6,58.2,53.7,51.8,93,85,72,30.17,29.93,9,3,14,0.17
2012-4-12,63.7,56.4,51.3,54.3,51.5,48.5,91,84,69,30.24,30.12,4,1,5,0.00
2012-4-13,56.8,54.5,52.3,54.3,50.4,46.2,94,86,75,30.11,29.85,20,5,24,0.45
2012-4-14,59.0,54.8,51.3,51.0,48.1,45.9,87,78,69,30.15,29.88,20,8,23,0.00
2012-4-15,68.1,55.7,47.0,57.7,49.8,41.8,88,81,65,30.22,30.14,4,1,7,0.00
2012-4-16,62.7,56.8,49.9,57.3,52.7,46.2,92,86,82,30.19,30.09,8,2,11,0.00
2012-4-17,63.6,58.3,52.2,59.6,55.2,50.2,94,89,81,30.12,29.99,7,2,10,0.00
2012-4-18,67.2,58.0,53.0,60.9,55.0,50.7,93,90,78,30.04,29.95,4,1,6,0.01
2012-4-19,68.0,59.1,55.6,60.2,55.9,53.9,95,89,74,30.03,29.95,3,1,6,0.00
2012-4-20,65.3,59.3,56.0,60.7,56.9,54.3,95,92,83,30.01,29.96,4,1,5,0.00
2012-4-21,62.5,59.1,57.6,60.0,57.5,56.4,96,94,89,30.01,29.94,5,1,7,0.00
2012-4-22,58.4,38.7,22.5,57.0,37.6,21.5,97,96,94,30.03,29.96,3,1,4,0.00
2012-4-23,40.3,23.1,19.4,39.2,22.1,18.5,96,96,96,30.11,30.02,4,0,7,0.04
2012-4-24,67.6,50.2,21.4,59.4,46.1,19.2,96,86,73,30.11,29.98,8,2,10,0.00
2012-4-25,69.8,61.4,57.8,63.9,57.5,54.0,95,87,81,30.06,29.81,6,1,11,0.16
2012-4-26,66.8,61.0,58.2,60.8,58.1,56.7,96,90,80,30.11,29.87,9,2,13,0.07
2012-4-27,69.8,61.4,56.3,60.8,56.2,51.7,92,83,70,30.11,29.99,7,1,8,0.00
2012-4-28,71.6,62.0,54.2,62.9,56.8,51.0,91,83,71,29.99,29.82,6,1,7,0.00
2012-4-29,65.2,61.4,57.1,60.3,57.7,54.5,92,88,82,29.98,29.84,5,2,8,0.00
2012-4-30,64.6,61.4,59.9,60.7,58.6,57.4,93,91,85,30.02,29.95,4,1,6,0.00
2012-5-1,63.8,60.5,58.6,59.2,57.4,56.0,94,89,82,29.99,29.92,5,1,8,0.00
2012-5-2,65.0,60.7,57.6,59.4,56.6,55.0,92,86,78,30.02,29.93,6,2,7,0.00
2012-5-3,67.3,60.5,57.1,61.6,57.2,54.3,95,89,79,30.09,30.00,9,2,12,0.06
2012-5-4,69.8,60.1,53.6,61.0,55.9,51.3,93,87,72,30.13,30.05,5,0,7,0.00
2012-5-8,69.2,64.8,60.8,61.8,59.8,57.2,91,84,75,29.94,29.86,7,1,9,0.00
2012-5-9,65.7,61.2,57.7,61.7,58.7,55.9,96,92,86,29.93,29.86,6,2,9,0.00
2012-5-10,65.1,61.0,58.4,58.8,56.8,54.1,91,86,79,29.97,29.91,8,3,11,0.00
2012-5-11,66.6,61.7,58.0,59.2,56.1,53.4,88,82,74,30.06,29.93,5,2,7,0.00
2012-5-12,72.2,64.2,60.9,61.8,58.6,56.4,90,82,68,30.11,30.02,8,2,11,0.00
2012-5-13,67.1,61.9,59.3,60.7,58.1,55.8,92,87,79,30.11,30.03,13,3,14,0.00
2012-5-14,70.7,62.6,56.2,62.8,58.2,53.9,93,86,74,30.08,29.97,10,3,14,0.00
2012-5-15,73.0,62.2,54.7,63.3,57.5,52.1,92,85,68,29.99,29.89,7,1,9,0.00
2012-5-16,75.1,65.3,57.4,66.2,60.5,55.1,93,85,73,29.93,29.83,4,0,6,0.01
2012-5-17,64.1,61.9,60.1,60.5,58.8,57.0,92,90,85,29.92,29.85,6,2,9,0.00
2012-5-18,73.6,63.8,59.3,61.5,57.5,55.6,90,80,63,29.94,29.87,6,2,9,0.00
2012-5-19,71.2,64.2,60.9,62.9,58.7,56.0,88,82,72,29.97,29.90,5,1,8,0.00
2012-5-20,70.5,63.7,60.8,63.7,59.9,57.8,93,87,77,29.96,29.89,6,1,9,0.00
2012-5-21,69.3,62.9,59.8,63.6,60.4,58.6,96,92,80,29.98,29.92,6,1,7,0.00
2012-5-22,64.5,62.0,59.8,60.9,59.6,58.1,95,92,87,29.97,29.85,6,2,7,0.00
2012-5-23,66.6,63.2,60.5,60.9,59.2,57.8,93,87,81,29.86,29.74,8,3,12,0.00
2012-5-24,64.1,62.6,61.0,58.8,57.7,56.5,86,84,81,29.77,29.70,9,4,12,0.00
2012-5-25,66.6,61.2,57.6,60.3,56.1,51.5,91,83,75,29.90,29.73,9,4,13,0.00
2012-5-26,69.3,60.9,57.2,55.6,52.5,50.5,81,74,60,30.08,29.88,6,2,9,0.00
2012-5-27,68.0,61.4,52.8,59.0,55.2,47.8,88,80,69,30.08,29.97,12,3,12,0.00
2012-5-28,73.3,63.7,57.9,64.4,59.1,55.0,91,85,71,30.00,29.92,4,1,7,0.00
2012-5-29,69.6,64.2,60.3,62.9,60.4,57.7,92,87,79,30.03,29.95,4,1,6,0.00
2012-5-30,65.5,63.4,61.9,60.2,58.9,57.3,91,85,82,30.06,29.99,5,2,6,0.00
2012-5-31,71.9,65.6,61.6,63.5,60.5,58.3,89,84,74,30.01,29.83,4,1,7,0.00
2012-6-1,64.9,62.8,61.5,61.0,59.4,58.2,90,89,85,29.90,29.84,7,2,7,0.00
2012-6-2,65.9,62.3,60.5,61.0,58.4,57.2,90,87,83,29.93,29.87,6,3,9,0.00
2012-6-3,66.3,62.8,61.0,61.3,58.8,57.5,89,87,82,29.97,29.88,6,2,8,0.00
2012-6-4,68.2,63.3,61.5,62.2,59.5,57.9,92,87,80,30.03,29.93,8,2,11,0.00
2012-6-5,73.8,65.4,60.9,62.6,59.1,54.3,90,80,66,30.01,29.93,11,3,14,0.00
2012-6-6,73.0,64.5,56.6,62.9,57.6,52.2,87,79,63,29.94,29.81,5,1,8,0.00
2012-6-7,67.2,63.3,57.1,62.2,59.0,53.6,89,86,81,29.89,29.84,5,2,7,0.00
2012-6-8,66.6,62.7,59.3,60.3,58.5,56.1,91,86,80,29.92,29.86,7,2,9,0.00
2012-6-9,66.1,62.5,60.6,59.6,57.6,56.3,90,84,76,29.90,29.82,6,3,8,0.00
2012-6-10,65.4,62.3,60.8,59.1,57.1,56.1,87,83,78,29.97,29.85,6,2,9,0.00
2012-6-11,68.6,63.3,60.7,62.0,58.9,56.6,89,86,77,30.02,29.93,5,1,6,0.00
2012-6-12,68.8,64.7,61.8,63.1,60.5,59.0,91,86,79,30.01,29.92,5,1,8,0.00
2012-6-13,62.2,60.8,59.6,59.7,58.4,56.3,96,92,87,29.93,29.83,4,1,7,0.00
2012-6-14,66.6,62.0,59.6,60.0,57.5,56.2,90,85,78,29.89,29.85,5,2,9,0.00
2012-6-15,63.8,61.8,60.3,59.0,57.7,56.5,92,87,83,29.92,29.85,6,2,7,0.00
2012-6-16,70.3,65.2,61.9,63.7,60.2,57.5,88,84,77,29.93,29.83,4,1,5,0.00
2012-6-17,72.1,65.3,61.5,65.6,61.8,58.5,93,88,78,29.95,29.88,10,3,15,0.00
2012-6-18,67.4,64.2,62.0,62.7,61.1,59.7,93,90,84,29.97,29.87,12,3,14,0.00
2012-6-19,74.7,65.0,60.6,63.8,59.8,58.0,93,84,66,29.95,29.84,7,2,8,0.00
2012-6-20,71.3,64.0,61.0,63.0,58.8,57.3,89,83,72,29.89,29.84,4,1,6,0.00
2012-6-21,72.1,64.8,62.3,64.8,60.1,58.1,90,85,74,29.95,29.88,8,2,10,0.00
2012-6-22,72.7,65.1,61.2,63.8,60.4,58.3,92,85,73,29.94,29.84,9,2,11,0.00
2012-6-23,73.7,64.6,60.9,63.8,59.9,58.2,92,85,69,29.90,29.82,9,2,12,0.00
2012-6-24,64.3,62.3,61.4,60.1,58.8,57.5,90,89,86,29.98,29.90,5,0,5,0.00
2012-6-25,74.4,64.6,58.1,64.8,59.3,55.2,91,83,72,30.05,29.94,8,1,11,0.00
2012-6-26,73.7,65.8,57.5,64.9,59.6,52.7,88,81,73,29.96,29.83,5,1,8,0.00
2012-6-27,74.3,64.9,57.5,65.9,60.5,54.9,92,86,73,29.95,29.83,2,0,4,0.00
2012-6-28,62.9,61.1,59.4,60.5,58.7,57.1,93,92,92,29.96,29.95,0,0,2,0.00
2012-6-29,73.5,66.6,62.3,65.9,62.4,59.3,92,86,75,30.05,29.95,10,3,11,0.00
2012-6-30,75.1,66.5,61.6,66.2,61.8,59.4,93,85,72,29.99,29.89,5,0,6,0.00
2012-7-1,75.7,66.4,62.9,66.0,61.5,58.7,90,85,70,29.93,29.84,5,2,7,0.00
2012-7-2,67.4,64.3,62.2,62.3,60.8,58.9,92,88,83,29.92,29.85,5,2,8,0.00
2012-7-3,66.6,63.7,61.9,61.7,60.0,58.9,91,88,82,29.96,29.88,6,2,6,0.00
2012-7-4,67.0,63.6,62.2,62.3,60.0,59.0,92,88,83,29.98,29.91,5,2,7,0.00
2012-7-5,67.1,64.2,62.8,62.0,60.6,59.3,92,88,83,30.02,29.95,5,1,6,0.00
2012-7-6,72.2,65.8,62.0,64.6,61.5,59.1,91,86,76,30.04,29.96,8,3,10,0.00
2012-7-7,70.0,63.9,59.2,63.5,60.2,56.9,92,88,77,30.05,29.97,7,2,10,0.00
2012-7-8,66.9,62.8,58.9,62.4,59.9,57.2,95,90,83,30.04,29.94,10,3,14,0.00
2012-7-9,69.2,64.2,58.7,64.2,61.1,56.7,94,90,83,29.97,29.88,10,2,11,0.00
2012-7-10,70.0,65.5,61.1,65.7,62.7,59.7,96,91,84,29.92,29.81,8,2,9,0.01
2012-7-11,73.8,65.9,62.7,68.3,63.1,60.7,94,91,82,29.91,29.81,4,1,7,0.00
2012-7-12,70.5,65.9,63.8,67.0,63.6,61.7,96,93,86,29.89,29.78,7,2,11,0.27
2012-7-13,75.2,58.0,24.8,70.9,56.2,24.0,97,94,83,29.94,29.85,6,1,8,0.34
2012-7-14,70.8,55.7,24.8,67.1,53.9,24.1,97,94,87,29.98,29.91,4,1,6,0.01
2012-7-15,71.4,64.5,62.2,63.0,59.9,58.5,90,85,72,29.99,29.92,4,1,8,0.00
2012-7-16,66.8,64.6,63.0,59.7,58.7,57.1,86,81,76,30.00,29.94,6,2,7,0.00
2012-7-17,75.9,66.8,62.9,63.8,59.6,56.6,89,78,64,30.03,29.96,5,1,6,0.00
2012-7-18,70.6,66.1,61.0,65.9,62.4,58.0,92,88,84,30.00,29.88,9,3,13,0.00
2012-7-19,76.9,68.5,62.8,69.5,64.4,59.5,92,87,76,29.98,29.89,4,1,9,0.00
2012-7-20,79.6,69.1,64.5,71.4,65.5,62.2,94,89,74,30.01,29.94,6,0,8,0.00
2012-7-21,75.8,67.4,63.6,68.6,63.9,61.5,94,89,76,29.99,29.88,7,2,12,0.00
2012-7-22,74.8,66.8,64.1,66.7,63.4,61.7,93,89,75,30.00,29.91,2,1,6,0.00
2012-7-23,74.4,66.8,64.0,67.1,63.4,61.8,94,89,77,30.01,29.93,5,2,9,0.00
2012-7-24,74.4,66.6,63.1,65.2,62.3,60.7,93,86,72,30.03,29.94,5,1,9,0.00
2012-7-25,76.3,67.4,63.0,65.3,61.8,60.0,90,83,65,30.05,29.95,6,2,11,0.00
2012-7-26,71.9,65.7,62.7,62.5,60.6,58.3,91,84,71,30.04,29.94,8,3,13,0.00
2012-7-27,69.8,64.3,60.8,64.1,60.3,58.5,92,87,77,30.04,29.95,9,3,11,0.00
2012-7-28,70.9,63.5,56.8,64.5,60.0,54.5,93,88,78,30.02,29.94,9,2,10,0.00
2012-7-29,75.8,66.7,61.4,66.1,62.1,59.4,94,85,69,30.02,29.91,5,1,6,0.00
2012-7-30,72.8,66.4,64.5,64.4,62.2,60.9,90,86,75,30.00,29.94,4,1,5,0.00
2012-7-31,74.0,67.8,65.1,67.8,64.0,62.5,92,88,77,30.05,29.97,5,1,5,0.00
2012-8-1,67.1,66.3,65.6,64.1,63.1,62.3,90,89,89,30.07,30.01,1,0,4,0.00
2012-8-2,74.0,69.1,66.2,66.2,64.1,62.5,91,84,75,29.97,29.90,3,1,5,0.00
2012-8-3,75.7,67.7,65.3,66.7,63.0,61.9,91,85,73,29.95,29.84,5,2,7,0.00
2012-8-4,74.8,68.3,65.6,66.3,63.4,61.8,91,85,73,29.96,29.88,6,2,9,0.00
2012-8-5,70.5,67.6,65.6,66.3,64.4,62.9,92,90,85,30.01,29.93,11,3,12,0.00
2012-8-6,77.7,69.6,66.0,69.9,66.2,63.8,95,89,74,30.01,29.90,7,1,11,0.00
2012-8-7,80.0,70.9,66.7,72.6,67.8,65.3,96,90,76,29.95,29.86,4,1,5,0.00
2012-8-8,82.7,72.4,68.7,73.0,68.5,66.0,95,88,72,29.93,29.85,6,1,8,0.00
2012-8-9,79.4,70.9,66.5,71.3,67.2,64.4,94,88,75,29.90,29.79,9,1,9,0.00
2012-8-10,77.0,70.9,66.6,71.5,67.6,64.5,94,90,80,29.83,29.70,9,1,10,0.00
2012-8-11,82.9,73.1,68.8,73.9,69.5,67.0,95,89,74,29.82,29.73,4,1,6,0.00
2012-8-12,76.8,72.7,69.2,71.6,69.4,67.1,94,89,83,29.83,29.75,7,2,11,0.00
2012-8-13,80.5,72.2,68.8,72.3,68.8,66.9,94,89,76,29.84,29.76,7,2,9,0.00
2012-8-14,75.0,70.7,67.4,69.8,67.9,65.6,95,91,83,29.84,29.75,8,2,10,0.00
2012-8-15,78.7,70.7,66.1,71.3,67.0,64.3,95,88,75,29.89,29.79,7,1,10,0.00
2012-8-16,74.0,69.7,65.8,69.9,66.4,63.7,93,89,83,29.90,29.81,7,2,9,0.01
2012-8-17,74.8,71.6,68.6,71.0,68.2,66.0,92,89,84,29.92,29.84,6,1,7,0.00
2012-8-18,83.7,74.4,70.4,75.1,70.7,67.7,94,88,75,29.92,29.82,2,0,4,0.00
2012-8-19,85.7,75.5,69.8,74.8,70.7,66.7,93,86,66,29.88,29.80,2,0,4,0.00
2012-8-20,78.8,73.5,70.4,72.4,69.8,67.4,94,88,80,29.91,29.84,5,2,6,0.00
2012-8-21,74.0,71.4,69.5,69.6,67.7,65.5,92,88,83,29.93,29.86,5,2,7,0.00
2012-8-22,74.1,71.4,69.7,69.0,67.0,65.7,89,86,81,29.94,29.88,5,2,6,0.00
2012-8-23,75.7,71.2,68.3,71.5,67.8,66.2,93,89,85,29.95,29.88,4,1,8,0.00
2012-8-24,73.0,69.2,67.7,69.2,66.6,65.2,94,91,85,29.95,29.86,4,0,7,0.00
2012-8-25,76.7,70.1,68.0,68.4,65.3,63.5,91,85,73,29.91,29.85,5,1,7,0.00
2012-8-26,74.5,69.8,66.2,66.2,64.0,61.0,90,82,75,29.97,29.88,10,3,12,0.00
2012-8-27,75.3,69.1,62.7,69.4,64.7,60.0,91,86,81,29.99,29.88,9,2,13,0.00
2012-8-28,75.2,70.5,64.9,70.7,66.3,60.3,89,87,77,29.93,29.80,7,2,9,0.00
2012-8-29,76.7,72.0,68.6,71.2,68.9,65.5,95,90,83,29.86,29.77,6,2,12,0.00
2012-8-30,82.5,73.0,68.9,74.6,69.6,66.8,93,89,75,29.84,29.77,5,1,6,0.00
2012-8-31,74.7,71.1,67.3,69.7,67.8,64.3,95,89,82,29.90,29.83,10,2,11,0.00
2012-9-1,73.4,68.7,62.6,68.3,64.5,59.3,91,87,79,29.95,29.89,9,2,11,0.00
2012-9-2,71.5,66.7,59.1,67.2,62.5,54.3,92,86,81,29.95,29.87,7,2,8,0.00
2012-9-3,71.3,67.0,61.8,67.6,63.9,58.8,93,90,86,30.00,29.91,8,2,9,0.01
2012-9-4,73.7,69.1,64.9,69.3,66.2,63.0,94,91,86,30.01,29.91,7,2,8,0.00
2012-9-5,75.6,71.2,67.8,70.2,67.7,65.4,94,89,82,29.98,29.92,7,2,9,0.00
2012-9-6,82.9,72.5,66.3,73.8,67.6,62.5,92,85,72,29.99,29.91,6,1,8,0.00
2012-9-7,79.1,71.3,65.9,72.1,67.0,62.6,91,86,78,30.04,29.94,7,2,9,0.00
2012-9-8,74.4,70.2,66.6,68.4,65.9,62.4,91,86,80,29.96,29.85,7,2,10,0.00
2012-9-9,76.6,71.1,66.4,71.2,67.3,63.2,91,88,83,29.93,29.80,7,2,9,0.00
2012-9-10,77.8,73.0,70.3,72.6,69.7,67.9,93,89,83,29.92,29.84,3,1,5,0.00
2012-9-11,72.2,71.0,69.7,70.4,68.8,67.0,95,93,90,30.00,29.86,3,0,4,0.00
2012-9-12,75.6,71.1,67.3,70.8,68.0,65.5,95,90,84,30.02,29.93,9,3,11,0.00
2012-9-13,70.9,67.7,66.6,68.2,65.9,65.0,96,94,90,30.04,29.91,8,2,10,0.00
2012-9-14,78.4,70.5,64.5,71.2,66.1,62.7,95,86,71,30.00,29.88,7,1,10,0.01
2012-9-15,84.6,75.4,66.4,71.7,62.5,54.4,81,66,38,30.00,29.90,6,1,8,0.00
2012-9-16,75.4,70.4,67.0,69.3,66.2,62.6,94,87,77,30.06,29.97,6,2,9,0.00
2012-9-17,79.3,69.7,65.7,69.5,65.4,62.6,94,86,70,30.05,29.94,9,2,11,0.00
2012-9-18,71.9,67.5,64.0,67.5,64.7,62.5,95,91,85,30.04,29.94,9,2,11,0.00
2012-9-19,75.3,67.7,62.2,69.3,64.5,59.8,93,90,80,29.99,29.90,10,2,11,0.01
2012-9-20,75.2,69.2,63.8,70.0,65.8,61.3,93,89,83,29.95,29.86,7,2,9,0.00
2012-9-21,82.0,71.8,65.7,73.7,68.4,63.9,94,89,73,29.93,29.83,4,0,4,0.00
2012-9-22,80.5,71.8,68.9,73.4,68.8,66.8,94,90,77,29.94,29.85,5,1,6,0.00
2012-9-23,76.2,70.7,64.2,71.3,66.9,61.8,93,88,76,29.96,29.89,6,2,8,0.01
2012-9-24,74.5,69.4,65.2,70.7,66.8,63.1,94,91,86,29.99,29.90,6,2,8,0.00
2012-9-25,75.4,67.7,62.8,67.8,63.5,60.5,95,87,76,29.94,29.86,3,0,4,0.01
2012-9-26,76.7,68.4,63.6,67.8,63.4,60.2,91,84,73,29.91,29.83,9,2,10,0.00
2012-9-27,75.2,69.0,63.9,68.6,65.0,61.2,93,87,78,29.94,29.86,6,1,9,0.00
2012-9-28,73.9,68.6,64.8,69.1,65.7,62.8,94,91,84,29.95,29.85,10,3,12,0.00
2012-9-29,74.9,69.1,62.9,70.1,65.8,60.2,93,89,82,29.99,29.90,9,2,11,0.00
2012-9-30,75.8,69.9,63.5,70.7,65.4,58.6,93,86,77,29.99,29.88,8,2,9,0.00
2012-10-1,77.9,70.1,62.5,70.8,66.4,60.2,94,88,73,29.94,29.81,9,2,12,0.01
2012-10-2,83.3,72.9,64.9,74.2,67.7,60.0,94,84,72,29.87,29.80,4,0,8,0.00
2012-10-3,73.6,68.5,62.7,69.5,66.0,61.2,96,92,84,30.04,29.88,6,1,8,0.01
2012-10-4,77.4,68.7,64.5,66.0,63.2,61.4,93,83,66,30.12,30.04,8,1,10,0.00
2012-10-5,77.5,68.5,64.7,66.7,62.7,59.8,89,82,67,30.08,29.95,3,0,6,0.00
2012-10-6,77.7,68.0,62.2,69.2,64.3,59.5,93,88,75,29.99,29.89,4,1,6,0.00
2012-10-7,76.6,70.0,64.4,68.1,65.2,61.1,91,85,75,29.95,29.88,4,1,8,0.00
2012-10-8,78.6,69.3,65.4,68.6,63.8,61.4,91,83,70,29.99,29.93,4,1,5,0.00
2012-10-9,76.7,68.2,63.4,67.4,62.3,58.5,88,82,72,30.01,29.93,8,2,10,0.00
2012-10-10,76.2,67.2,62.0,65.4,61.3,58.8,91,82,65,30.01,29.92,7,1,8,0.32
2012-10-11,68.6,61.9,56.7,60.1,57.5,54.7,94,86,72,30.00,29.91,6,1,8,0.81
2012-10-12,73.1,64.7,56.7,62.5,58.3,53.2,89,80,66,30.18,30.00,9,2,12,0.01
2012-10-13,71.3,64.3,57.0,63.5,58.9,53.2,87,83,75,30.22,30.04,10,2,12,0.00
2012-10-14,75.1,67.3,59.3,68.1,62.0,55.8,89,83,74,30.08,29.93,9,1,11,0.00
2012-10-15,81.2,70.4,63.0,68.9,62.4,52.5,94,76,59,29.95,29.84,5,1,8,0.00
2012-10-16,71.0,65.7,59.7,68.3,63.0,57.4,96,91,77,29.89,29.75,9,2,13,0.00
2012-10-17,79.7,69.8,60.2,69.2,61.3,54.5,91,76,51,29.84,29.73,7,1,8,0.00
2012-10-18,78.3,71.7,66.1,68.9,65.6,53.1,90,82,55,30.08,29.84,7,2,16,0.00
2012-10-19,71.0,67.3,63.4,66.9,64.3,61.2,94,90,86,30.02,29.90,11,3,13,0.00
2012-10-20,68.3,66.0,63.7,64.6,63.4,62.2,95,91,88,29.94,29.85,5,1,7,0.06
2012-10-21,71.0,65.9,62.9,65.6,62.9,60.8,97,90,79,29.94,29.88,5,1,8,0.06
2012-10-22,71.6,65.5,60.6,61.4,59.2,55.3,88,80,67,30.02,29.92,7,2,10,0.00
2012-10-23,72.9,64.0,59.1,60.2,56.4,52.8,90,77,55,30.02,29.96,7,1,11,0.00
2012-10-24,72.6,63.2,56.0,59.9,55.3,50.7,85,76,62,30.08,30.00,10,2,13,0.00
2012-10-25,74.5,63.5,55.1,62.4,53.9,43.7,85,72,54,30.09,29.95,8,1,10,0.00
2012-10-26,76.8,67.7,58.0,59.2,47.6,32.1,79,50,23,30.02,29.90,6,1,7,0.00
2012-10-27,79.4,68.3,60.5,65.7,50.6,27.8,78,55,26,29.93,29.82,5,1,8,0.00
2012-10-28,78.4,66.6,58.6,63.5,54.3,38.9,84,65,44,30.03,29.91,4,0,5,0.00
2012-10-29,69.6,63.0,56.7,64.0,53.6,40.6,90,72,54,30.11,30.02,6,1,7,0.00
2012-10-30,66.6,60.6,52.7,62.3,57.5,49.3,93,89,82,30.10,30.00,9,1,9,0.00
2012-10-31,66.0,61.7,57.2,60.3,57.9,54.6,92,87,80,30.09,29.99,8,2,10,0.00
2012-11-1,61.1,60.7,59.5,58.0,57.4,56.6,91,89,86,30.03,30.01,4,0,4,0.00
2012-11-2,73.2,60.2,60.1,99.9,60.1,54.3,100,79,65,30.03,29.94,4,0,6,0.00
2012-11-3,-200.0,0.0,158.0,99.9,99.9,99.9,100,96,88,30.07,29.97,8,2,11,0.00
2012-11-4,-200.0,0.0,158.0,99.9,99.9,99.9,100,73,22,30.08,29.99,4,1,7,0.01
2012-11-5,-200.0,0.0,158.0,99.9,97.7,43.0,86,52,3,30.07,29.97,5,1,12,0.00
2012-11-6,-200.0,0.0,158.0,99.9,99.9,99.9,100,82,44,30.09,30.01,3,1,6,0.00
2012-11-7,158.0,0.0,158.0,99.9,99.9,99.9,100,98,86,30.09,29.97,7,1,9,0.00
2012-11-8,158.0,0.0,158.0,99.9,99.9,99.9,100,97,85,30.06,29.90,7,1,14,0.23
2012-11-9,158.0,0.0,158.0,99.9,99.9,99.9,85,73,55,29.98,29.90,15,6,17,0.00
2012-11-10,158.0,0.0,158.0,99.9,99.9,99.9,87,71,50,30.19,29.97,14,5,19,0.00
2012-11-11,158.0,0.0,158.0,99.9,99.9,99.9,77,58,21,30.31,30.19,6,1,9,0.00
2012-11-12,158.0,0.0,158.0,99.9,99.3,79.7,79,49,11,30.27,30.11,5,1,7,0.00
2012-11-13,158.0,0.0,158.0,99.9,99.9,99.9,97,58,28,30.15,29.99,7,1,13,0.00
2012-11-14,158.0,0.0,158.0,99.9,99.9,99.9,100,84,44,30.09,30.00,4,1,6,0.00
2012-11-15,158.0,0.0,158.0,99.9,99.9,99.9,98,85,69,30.12,30.03,6,1,9,0.00
2012-11-16,158.0,0.0,158.0,99.9,99.9,99.9,100,77,35,30.13,30.02,6,1,6,0.05
2012-11-17,158.0,0.0,158.0,99.9,99.9,99.9,100,96,80,30.12,30.05,5,1,7,0.08
2012-11-18,158.0,0.0,158.0,99.9,99.9,99.9,100,97,90,30.20,30.08,9,2,12,0.00
2012-11-19,158.0,0.0,158.0,99.9,99.9,99.9,100,97,84,30.26,30.17,8,2,10,0.00
2012-11-20,158.0,0.0,158.0,99.9,98.5,0.0,100,96,91,30.18,30.05,8,2,10,0.01
2012-11-21,158.0,0.0,158.0,99.9,99.9,99.9,100,95,74,30.13,30.03,4,0,6,0.00
2012-11-22,158.0,0.0,158.0,99.9,99.9,99.9,100,97,87,30.14,30.05,6,1,7,0.00
2012-11-23,158.0,0.0,158.0,99.9,99.9,99.9,100,100,100,30.18,30.08,6,1,8,0.01
2012-11-24,158.0,0.0,158.0,99.9,99.2,0.0,100,99,100,30.10,29.93,9,2,11,0.00
2012-11-25,158.0,0.0,158.0,99.9,99.9,99.9,100,100,97,30.01,29.90,4,1,8,0.00
2012-11-26,158.0,0.0,158.0,99.9,99.9,99.9,100,93,76,30.13,30.01,4,0,6,0.00
2012-11-27,158.0,0.0,158.0,99.9,99.9,99.9,100,99,88,30.19,30.10,3,0,5,0.01
2012-12-20,62.1,53.8,47.1,45.5,37.4,30.1,66,54,41,30.16,30.10,5,1,8,0.73
2012-12-21,61.1,52.5,46.0,49.9,38.2,24.7,79,59,41,30.18,30.08,5,1,7,0.00
2012-12-22,63.4,53.7,43.6,51.0,45.2,37.9,84,73,62,30.25,30.12,3,0,3,0.00
2012-12-23,62.0,55.7,51.4,55.2,51.1,46.4,92,85,74,30.27,30.17,3,1,6,0.01
2012-12-24,65.7,57.2,52.6,59.9,54.2,49.4,97,90,80,30.19,30.04,7,1,9,0.33
2012-12-25,60.0,54.4,51.1,53.9,50.5,47.3,93,87,74,30.14,30.03,7,1,10,0.00
2012-12-26,58.9,54.5,48.1,53.4,49.7,44.7,96,84,72,30.06,29.99,13,5,18,0.13
2012-12-27,62.3,52.5,44.2,48.7,44.1,39.7,88,74,58,30.15,30.01,6,1,11,0.00
2012-12-28,63.2,52.6,45.7,50.8,42.1,34.8,77,68,53,30.21,30.12,6,1,8,0.00
2012-12-29,56.1,49.9,46.3,50.3,42.0,32.0,94,76,54,30.13,30.02,4,1,9,0.13
2012-12-30,57.5,48.1,42.7,49.2,42.8,37.5,94,82,64,30.12,29.96,6,1,11,0.02
2012-12-31,59.8,49.5,41.8,45.0,39.5,35.5,80,69,53,30.30,30.13,3,1,6,0.00
2013-1-1,58.4,51.2,45.6,46.2,37.1,23.2,70,60,32,30.29,30.14,4,0,6,0.00